Snav Lazio — IBUH — position and weather

sailwx.info

Track history (hours):
 
Tides and Currents Weather Stations Pressure Air Temp Water Temp Dewpoint Dewpoint Depression Visibility Wind Speed Wind Dir Waves Ship Positions

Snav Lazio

Last reported at 2016-Jun-26 20:33 UTC. Time now 2016-Jun-26 21:01 UTC.
Position N 38°42' E 013°35'.

Length 162 m; draft 6 m.

Type: Passenger vessel. MMSI: 247163100.

Date/timePositionNaut miles runAvg speedWind from/ knotsBaromVisibWave heightAir tempDewpointWater temp
2016-Jun-26 20:33N 38°42' E 013°35'1817.4
2016-Jun-26 19:33N 38°25' E 013°30'1717.4
2016-Jun-26 18:33N 38°08' E 013°25'2 2.4
2016-Jun-26 17:33N 38°08' E 013°22'0 0.0
2016-Jun-26 16:34N 38°08' E 013°22'0 0.0
2016-Jun-26 15:34N 38°08' E 013°22'0 0.0
2016-Jun-26 14:34N 38°08' E 013°22'0 0.0
2016-Jun-26 13:34N 38°08' E 013°22'0 0.0
2016-Jun-26 12:33N 38°08' E 013°22'0 0.0
2016-Jun-26 11:34N 38°08' E 013°22'0 0.0
2016-Jun-26 10:33N 38°08' E 013°22'0 0.0
2016-Jun-26 09:34N 38°08' E 013°22'0 0.0
2016-Jun-26 08:34N 38°08' E 013°22'0 0.0
2016-Jun-26 07:34N 38°08' E 013°22'0 0.0
2016-Jun-26 06:33N 38°08' E 013°22'0 0.0
2016-Jun-26 05:33N 38°08' E 013°22'0 0.2
2016-Jun-26 04:33N 38°08' E 013°22'1111.2
2016-Jun-26 03:33N 38°18' E 013°27'1717.0
2016-Jun-26 02:33N 38°35' E 013°32'1717.1
2016-Jun-26 01:33N 38°52' E 013°37'1717.0
2016-Jun-26 00:34N 39°08' E 013°42'1717.2
2016-Jun-25 23:34N 39°25' E 013°47'1717.3
2016-Jun-25 22:33N 39°42' E 013°52'1717.1
2016-Jun-25 21:33N 39°58' E 013°57'1717.1
2016-Jun-25 20:34N 40°15' E 014°02'1717.0
2016-Jun-25 19:33N 40°32' E 014°07'1716.6
2016-Jun-25 18:33N 40°47' E 014°16'3 2.7
2016-Jun-25 17:19N 40°50' E 014°16'0 0.0
2016-Jun-25 16:04N 40°50' E 014°16'0 0.0
2016-Jun-25 14:31N 40°50' E 014°16'0 0.0
2016-Jun-25 13:31N 40°50' E 014°16'1 0.1
2016-Jun-25 04:22N 40°50' E 014°16'1113.2
2016-Jun-25 03:33N 40°40' E 014°12'1717.3
2016-Jun-25 02:33N 40°24' E 014°04'5217.2
2016-Jun-24 23:32N 39°33' E 013°51'3417.0
2016-Jun-24 21:32N 38°60' E 013°41'1717.0
2016-Jun-24 20:34N 38°44' E 013°36'1717.0
2016-Jun-24 19:33N 38°27' E 013°31'1717.0
2016-Jun-24 18:33N 38°10' E 013°26'4 3.9
2016-Jun-24 17:32N 38°08' E 013°22'0 0.0
2016-Jun-24 16:33N 38°08' E 013°22'0 0.0
2016-Jun-24 15:33N 38°08' E 013°22'0 0.0
2016-Jun-24 14:33N 38°08' E 013°22'0 0.0
2016-Jun-24 13:33N 38°08' E 013°22'0 0.0
2016-Jun-24 12:33N 38°08' E 013°22'0 0.0
2016-Jun-24 11:33N 38°08' E 013°22'0 0.0
2016-Jun-24 10:33N 38°08' E 013°22'0 0.0
2016-Jun-24 09:33N 38°08' E 013°22'0 0.0
2016-Jun-24 08:33N 38°08' E 013°22'0 0.0
2016-Jun-24 07:33N 38°08' E 013°22'2 0.6
2016-Jun-24 04:33N 38°08' E 013°24'1616.4
2016-Jun-24 03:34N 38°24' E 013°29'1716.9
2016-Jun-24 02:34N 38°40' E 013°34'1716.7
2016-Jun-24 01:34N 38°57' E 013°39'1616.5
2016-Jun-24 00:34N 39°13' E 013°44'1616.3
2016-Jun-23 23:34N 39°29' E 013°48'52 1.9
2016-Jun-22 20:26N 38°37' E 013°34'1516.8
2016-Jun-22 19:33N 38°23' E 013°30'1716.6
2016-Jun-22 18:34N 38°07' E 013°24'1 1.3
2016-Jun-22 17:29N 38°08' E 013°22'0 0.0
2016-Jun-22 16:29N 38°08' E 013°22'0 0.0
2016-Jun-22 15:32N 38°08' E 013°22'0 0.0
2016-Jun-22 14:17N 38°08' E 013°22'0 0.0
2016-Jun-22 13:32N 38°08' E 013°22'0 0.0
2016-Jun-22 12:32N 38°08' E 013°22'0 0.0
2016-Jun-22 11:32N 38°08' E 013°22'0 0.0
2016-Jun-22 10:32N 38°08' E 013°22'0 0.0
2016-Jun-22 09:32N 38°08' E 013°22'0 0.0
2016-Jun-22 08:32N 38°08' E 013°22'0 0.0
2016-Jun-22 07:32N 38°08' E 013°22'0 0.0
2016-Jun-22 06:32N 38°08' E 013°22'0 0.0
2016-Jun-22 05:32N 38°08' E 013°22'1 1.4
2016-Jun-22 04:33N 38°07' E 013°23'1615.9
2016-Jun-22 03:33N 38°23' E 013°28'1717.2
2016-Jun-22 02:33N 38°40' E 013°33'1917.1
2016-Jun-22 01:27N 38°58' E 013°38'1517.1
2016-Jun-22 00:33N 39°13' E 013°43'1717.0
2016-Jun-21 23:33N 39°29' E 013°48'3617.0
2016-Jun-21 21:26N 40°05' E 013°59'1917.2
2016-Jun-21 20:21N 40°23' E 014°04'1417.2
2016-Jun-21 19:33N 40°36' E 014°09'126 5.5
2016-Jun-20 20:30N 38°33' E 013°31'1516.4
2016-Jun-20 19:33N 38°18' E 013°28'1110.5
2016-Jun-20 18:32N 38°08' E 013°22'0 0.0
2016-Jun-20 17:32N 38°08' E 013°22'0 0.0
2016-Jun-20 16:32N 38°08' E 013°22'0 0.0
2016-Jun-20 15:32N 38°08' E 013°22'0 0.0
2016-Jun-20 14:32N 38°08' E 013°22'0 0.0
2016-Jun-20 13:32N 38°08' E 013°22'0 0.0
2016-Jun-20 12:32N 38°08' E 013°22'0 0.0
2016-Jun-20 11:32N 38°08' E 013°22'0 0.0
2016-Jun-20 10:32N 38°08' E 013°22'0 0.0
2016-Jun-20 09:32N 38°08' E 013°22'0 0.0
2016-Jun-20 08:32N 38°08' E 013°22'0 0.0
2016-Jun-20 07:32N 38°08' E 013°22'0 0.0
2016-Jun-20 06:32N 38°08' E 013°22'0 0.0
2016-Jun-20 05:32N 38°08' E 013°22'0 0.0
2016-Jun-20 04:34N 38°08' E 013°22'1211.9
2016-Jun-20 03:33N 38°19' E 013°28'1616.1
2016-Jun-20 02:33N 38°35' E 013°32'12217.0
2016-Jun-19 19:21N 40°34' E 014°09'17 1.4
2016-Jun-19 07:13N 40°50' E 014°16'0 0.0
2016-Jun-19 06:31N 40°50' E 014°16'0 0.0
2016-Jun-19 05:31N 40°50' E 014°16'1 1.5
2016-Jun-19 04:33N 40°49' E 014°17'1514.8
2016-Jun-19 03:33N 40°36' E 014°09'11816.6
2016-Jun-18 20:27N 38°41' E 013°35'1516.9
2016-Jun-18 19:34N 38°26' E 013°31'1717.4
2016-Jun-18 18:33N 38°09' E 013°26'3 3.2
2016-Jun-18 17:34N 38°08' E 013°22'0 0.0
2016-Jun-18 16:33N 38°08' E 013°22'0 0.0
2016-Jun-18 15:33N 38°08' E 013°22'0 0.0
2016-Jun-18 14:33N 38°08' E 013°22'0 0.0
2016-Jun-18 13:33N 38°08' E 013°22'0 0.0
2016-Jun-18 12:33N 38°08' E 013°22'0 0.0
2016-Jun-18 11:33N 38°08' E 013°22'0 0.0
2016-Jun-18 10:33N 38°08' E 013°22'0 0.0
2016-Jun-18 09:33N 38°08' E 013°22'0 0.0
2016-Jun-18 08:33N 38°08' E 013°22'0 0.0
2016-Jun-18 07:33N 38°08' E 013°22'0 0.0
2016-Jun-18 06:33N 38°08' E 013°22'0 0.0
2016-Jun-18 05:33N 38°08' E 013°22'2 2.2
2016-Jun-18 04:33N 38°09' E 013°24'1716.7
2016-Jun-18 03:33N 38°25' E 013°29'1717.1
2016-Jun-18 02:33N 38°42' E 013°35'1716.6
2016-Jun-18 01:33N 38°58' E 013°39'1616.4
2016-Jun-18 00:33N 39°14' E 013°43'1616.3
2016-Jun-17 23:33N 39°30' E 013°47'1616.3
2016-Jun-17 22:33N 39°46' E 013°51'1616.5
2016-Jun-17 21:33N 40°02' E 013°56'1817.6
2016-Jun-17 20:33N 40°19' E 014°03'1615.6
2016-Jun-17 19:33N 40°34' E 014°09'1616.4
2016-Jun-17 18:33N 40°49' E 014°17'1 1.3
2016-Jun-17 17:33N 40°50' E 014°16'0 0.0
2016-Jun-17 16:33N 40°50' E 014°16'0 0.0
2016-Jun-17 15:33N 40°50' E 014°16'0 0.0
2016-Jun-17 14:33N 40°50' E 014°16'0 0.0
2016-Jun-17 13:29N 40°50' E 014°16'0 0.0
2016-Jun-17 12:33N 40°50' E 014°16'0 0.0
2016-Jun-17 11:28N 40°50' E 014°16'0 0.0
2016-Jun-17 10:33N 40°50' E 014°16'0 0.0
2016-Jun-17 08:33N 40°50' E 014°16'0 0.0
2016-Jun-17 07:12N 40°50' E 014°16'0 0.0
2016-Jun-17 06:28N 40°50' E 014°16'0 0.0
2016-Jun-17 05:33N 40°50' E 014°16'6 5.6
2016-Jun-17 04:33N 40°45' E 014°15'1616.5
2016-Jun-17 03:33N 40°30' E 014°07'  
Track history (hours):
 
Tides and Currents Weather Stations Pressure Air Temp Water Temp Dewpoint Dewpoint Depression Visibility Wind Speed Wind Dir Waves Ship Positions

Snav Lazio

Last reported at 2016-Jun-26 20:33 UTC. Time now 2016-Jun-26 21:01 UTC.
Position N 38°42' E 013°35'.

Length 162 m; draft 6 m.

Type: Passenger vessel. MMSI: 247163100.

Date/timePositionNaut miles runAvg speedWind from/ knotsBaromVisibWave heightAir tempDewpointWater temp
2016-Jun-26 20:33N 38°42' E 013°35'1817.4
2016-Jun-26 19:33N 38°25' E 013°30'1717.4
2016-Jun-26 18:33N 38°08' E 013°25'2 2.4
2016-Jun-26 17:33N 38°08' E 013°22'0 0.0
2016-Jun-26 16:34N 38°08' E 013°22'0 0.0
2016-Jun-26 15:34N 38°08' E 013°22'0 0.0
2016-Jun-26 14:34N 38°08' E 013°22'0 0.0
2016-Jun-26 13:34N 38°08' E 013°22'0 0.0
2016-Jun-26 12:33N 38°08' E 013°22'0 0.0
2016-Jun-26 11:34N 38°08' E 013°22'0 0.0
2016-Jun-26 10:33N 38°08' E 013°22'0 0.0
2016-Jun-26 09:34N 38°08' E 013°22'0 0.0
2016-Jun-26 08:34N 38°08' E 013°22'0 0.0
2016-Jun-26 07:34N 38°08' E 013°22'0 0.0
2016-Jun-26 06:33N 38°08' E 013°22'0 0.0
2016-Jun-26 05:33N 38°08' E 013°22'0 0.2
2016-Jun-26 04:33N 38°08' E 013°22'1111.2
2016-Jun-26 03:33N 38°18' E 013°27'1717.0
2016-Jun-26 02:33N 38°35' E 013°32'1717.1
2016-Jun-26 01:33N 38°52' E 013°37'1717.0
2016-Jun-26 00:34N 39°08' E 013°42'1717.2
2016-Jun-25 23:34N 39°25' E 013°47'1717.3
2016-Jun-25 22:33N 39°42' E 013°52'1717.1
2016-Jun-25 21:33N 39°58' E 013°57'1717.1
2016-Jun-25 20:34N 40°15' E 014°02'1717.0
2016-Jun-25 19:33N 40°32' E 014°07'1716.6
2016-Jun-25 18:33N 40°47' E 014°16'3 2.7
2016-Jun-25 17:19N 40°50' E 014°16'0 0.0
2016-Jun-25 16:04N 40°50' E 014°16'0 0.0
2016-Jun-25 14:31N 40°50' E 014°16'0 0.0
2016-Jun-25 13:31N 40°50' E 014°16'1 0.1
2016-Jun-25 04:22N 40°50' E 014°16'1113.2
2016-Jun-25 03:33N 40°40' E 014°12'1717.3
2016-Jun-25 02:33N 40°24' E 014°04'5217.2
2016-Jun-24 23:32N 39°33' E 013°51'3417.0
2016-Jun-24 21:32N 38°60' E 013°41'1717.0
2016-Jun-24 20:34N 38°44' E 013°36'1717.0
2016-Jun-24 19:33N 38°27' E 013°31'1717.0
2016-Jun-24 18:33N 38°10' E 013°26'4 3.9
2016-Jun-24 17:32N 38°08' E 013°22'0 0.0
2016-Jun-24 16:33N 38°08' E 013°22'0 0.0
2016-Jun-24 15:33N 38°08' E 013°22'0 0.0
2016-Jun-24 14:33N 38°08' E 013°22'0 0.0
2016-Jun-24 13:33N 38°08' E 013°22'0 0.0
2016-Jun-24 12:33N 38°08' E 013°22'0 0.0
2016-Jun-24 11:33N 38°08' E 013°22'0 0.0
2016-Jun-24 10:33N 38°08' E 013°22'0 0.0
2016-Jun-24 09:33N 38°08' E 013°22'0 0.0
2016-Jun-24 08:33N 38°08' E 013°22'0 0.0
2016-Jun-24 07:33N 38°08' E 013°22'2 0.6
2016-Jun-24 04:33N 38°08' E 013°24'1616.4
2016-Jun-24 03:34N 38°24' E 013°29'1716.9
2016-Jun-24 02:34N 38°40' E 013°34'1716.7
2016-Jun-24 01:34N 38°57' E 013°39'1616.5
2016-Jun-24 00:34N 39°13' E 013°44'1616.3
2016-Jun-23 23:34N 39°29' E 013°48'52 1.9
2016-Jun-22 20:26N 38°37' E 013°34'1516.8
2016-Jun-22 19:33N 38°23' E 013°30'1716.6
2016-Jun-22 18:34N 38°07' E 013°24'1 1.3
2016-Jun-22 17:29N 38°08' E 013°22'0 0.0
2016-Jun-22 16:29N 38°08' E 013°22'0 0.0
2016-Jun-22 15:32N 38°08' E 013°22'0 0.0
2016-Jun-22 14:17N 38°08' E 013°22'0 0.0
2016-Jun-22 13:32N 38°08' E 013°22'0 0.0
2016-Jun-22 12:32N 38°08' E 013°22'0 0.0
2016-Jun-22 11:32N 38°08' E 013°22'0 0.0
2016-Jun-22 10:32N 38°08' E 013°22'0 0.0
2016-Jun-22 09:32N 38°08' E 013°22'0 0.0
2016-Jun-22 08:32N 38°08' E 013°22'0 0.0
2016-Jun-22 07:32N 38°08' E 013°22'0 0.0
2016-Jun-22 06:32N 38°08' E 013°22'0 0.0
2016-Jun-22 05:32N 38°08' E 013°22'1 1.4
2016-Jun-22 04:33N 38°07' E 013°23'1615.9
2016-Jun-22 03:33N 38°23' E 013°28'1717.2
2016-Jun-22 02:33N 38°40' E 013°33'1917.1
2016-Jun-22 01:27N 38°58' E 013°38'1517.1
2016-Jun-22 00:33N 39°13' E 013°43'1717.0
2016-Jun-21 23:33N 39°29' E 013°48'3617.0
2016-Jun-21 21:26N 40°05' E 013°59'1917.2
2016-Jun-21 20:21N 40°23' E 014°04'1417.2
2016-Jun-21 19:33N 40°36' E 014°09'126 5.5
2016-Jun-20 20:30N 38°33' E 013°31'1516.4
2016-Jun-20 19:33N 38°18' E 013°28'1110.5
2016-Jun-20 18:32N 38°08' E 013°22'0 0.0
2016-Jun-20 17:32N 38°08' E 013°22'0 0.0
2016-Jun-20 16:32N 38°08' E 013°22'0 0.0
2016-Jun-20 15:32N 38°08' E 013°22'0 0.0
2016-Jun-20 14:32N 38°08' E 013°22'0 0.0
2016-Jun-20 13:32N 38°08' E 013°22'0 0.0
2016-Jun-20 12:32N 38°08' E 013°22'0 0.0
2016-Jun-20 11:32N 38°08' E 013°22'0 0.0
2016-Jun-20 10:32N 38°08' E 013°22'0 0.0
2016-Jun-20 09:32N 38°08' E 013°22'0 0.0
2016-Jun-20 08:32N 38°08' E 013°22'0 0.0
2016-Jun-20 07:32N 38°08' E 013°22'0 0.0
2016-Jun-20 06:32N 38°08' E 013°22'0 0.0
2016-Jun-20 05:32N 38°08' E 013°22'0 0.0
2016-Jun-20 04:34N 38°08' E 013°22'1211.9
2016-Jun-20 03:33N 38°19' E 013°28'1616.1
2016-Jun-20 02:33N 38°35' E 013°32'12217.0
2016-Jun-19 19:21N 40°34' E 014°09'17 1.4
2016-Jun-19 07:13N 40°50' E 014°16'0 0.0
2016-Jun-19 06:31N 40°50' E 014°16'0 0.0
2016-Jun-19 05:31N 40°50' E 014°16'1 1.5
2016-Jun-19 04:33N 40°49' E 014°17'1514.8
2016-Jun-19 03:33N 40°36' E 014°09'11816.6
2016-Jun-18 20:27N 38°41' E 013°35'1516.9
2016-Jun-18 19:34N 38°26' E 013°31'1717.4
2016-Jun-18 18:33N 38°09' E 013°26'3 3.2
2016-Jun-18 17:34N 38°08' E 013°22'0 0.0
2016-Jun-18 16:33N 38°08' E 013°22'0 0.0
2016-Jun-18 15:33N 38°08' E 013°22'0 0.0
2016-Jun-18 14:33N 38°08' E 013°22'0 0.0
2016-Jun-18 13:33N 38°08' E 013°22'0 0.0
2016-Jun-18 12:33N 38°08' E 013°22'0 0.0
2016-Jun-18 11:33N 38°08' E 013°22'0 0.0
2016-Jun-18 10:33N 38°08' E 013°22'0 0.0
2016-Jun-18 09:33N 38°08' E 013°22'0 0.0
2016-Jun-18 08:33N 38°08' E 013°22'0 0.0
2016-Jun-18 07:33N 38°08' E 013°22'0 0.0
2016-Jun-18 06:33N 38°08' E 013°22'0 0.0
2016-Jun-18 05:33N 38°08' E 013°22'2 2.2
2016-Jun-18 04:33N 38°09' E 013°24'1716.7
2016-Jun-18 03:33N 38°25' E 013°29'1717.1
2016-Jun-18 02:33N 38°42' E 013°35'1716.6
2016-Jun-18 01:33N 38°58' E 013°39'1616.4
2016-Jun-18 00:33N 39°14' E 013°43'1616.3
2016-Jun-17 23:33N 39°30' E 013°47'1616.3
2016-Jun-17 22:33N 39°46' E 013°51'1616.5
2016-Jun-17 21:33N 40°02' E 013°56'1817.6
2016-Jun-17 20:33N 40°19' E 014°03'1615.6
2016-Jun-17 19:33N 40°34' E 014°09'1616.4
2016-Jun-17 18:33N 40°49' E 014°17'1 1.3
2016-Jun-17 17:33N 40°50' E 014°16'0 0.0
2016-Jun-17 16:33N 40°50' E 014°16'0 0.0
2016-Jun-17 15:33N 40°50' E 014°16'0 0.0
2016-Jun-17 14:33N 40°50' E 014°16'0 0.0
2016-Jun-17 13:29N 40°50' E 014°16'0 0.0
2016-Jun-17 12:33N 40°50' E 014°16'0 0.0
2016-Jun-17 11:28N 40°50' E 014°16'0 0.0
2016-Jun-17 10:33N 40°50' E 014°16'0 0.0
2016-Jun-17 08:33N 40°50' E 014°16'0 0.0
2016-Jun-17 07:12N 40°50' E 014°16'0 0.0
2016-Jun-17 06:28N 40°50' E 014°16'0 0.0
2016-Jun-17 05:33N 40°50' E 014°16'6 5.6
2016-Jun-17 04:33N 40°45' E 014°15'1616.5
2016-Jun-17 03:33N 40°30' E 014°07'  

Dump ship's entire track history